Time;durP1;ratioP1;P1;durP2;ratioP2;P2;SDS_P1;SDS_P2;PMS_P1;PMS_P2;Temp;Humidity;BMP_temperature;BMP_pressure;BME280_temperature;BME280_humidity;BME280_pressure;Samples;Min_cycle;Max_cycle;Signal;HPM_P1;HPM_P2
2024/02/16 00:01:07;;;;;;;3.25;1.48;;;6.20;62.90;;;;;;5071491;28;20274;-71
2024/02/16 00:03:34;;;;;;;5.78;2.67;;;6.20;63.10;;;;;;5054865;28;20049;-71
2024/02/16 00:06:00;;;;;;;6.07;3.95;;;6.20;62.90;;;;;;5071770;28;20044;-72
2024/02/16 00:08:26;;;;;;;3.97;2.83;;;6.20;63.10;;;;;;5073347;28;20423;-71
2024/02/16 00:10:52;;;;;;;5.53;2.47;;;6.20;63.30;;;;;;5071083;28;20044;-72
2024/02/16 00:13:18;;;;;;;2.92;1.33;;;6.20;63.60;;;;;;5071754;28;20048;-72
2024/02/16 00:15:44;;;;;;;5.68;2.45;;;6.20;64.30;;;;;;5072648;28;20083;-71
2024/02/16 00:18:11;;;;;;;5.55;2.05;;;6.20;64.70;;;;;;5073024;28;20068;-72
2024/02/16 00:20:37;;;;;;;5.63;2.25;;;6.20;64.50;;;;;;5070902;28;20029;-71
2024/02/16 00:23:03;;;;;;;;;;;6.20;64.50;;;;;;5073183;28;20036;-72
2024/02/16 00:25:29;;;;;;;4.18;1.98;;;6.20;64.30;;;;;;5071433;28;19958;-71
2024/02/16 00:27:55;;;;;;;5.90;2.33;;;6.20;64.70;;;;;;5072899;28;20068;-71
2024/02/16 00:30:22;;;;;;;2.97;1.73;;;6.20;64.90;;;;;;5070725;28;20051;-72
2024/02/16 00:32:49;;;;;;;4.13;1.67;;;6.10;64.20;;;;;;5072700;28;20398;-72
2024/02/16 00:35:19;;;;;;;2.92;2.15;;;6.10;65.00;;;;;;5071188;28;20420;-72
2024/02/16 00:40:30;;;;;;;6.35;2.63;;;6.00;63.90;;;;;;5070720;28;20078;-71
2024/02/16 00:42:56;;;;;;;1.90;1.23;;;6.10;64.50;;;;;;5072678;28;20048;-70
2024/02/16 00:45:22;;;;;;;7.07;4.30;;;6.00;64.30;;;;;;5071293;28;20111;-72
2024/02/16 00:50:18;;;;;;;2.45;1.67;;;6.00;64.50;;;;;;5071817;28;20044;-71
2024/02/16 00:52:45;;;;;;;2.90;1.75;;;5.90;64.40;;;;;;5071062;28;20052;-71
2024/02/16 00:55:12;;;;;;;2.08;1.30;;;5.90;64.30;;;;;;5071991;28;20119;-71
2024/02/16 00:57:39;;;;;;;5.82;1.95;;;5.90;64.20;;;;;;5072442;28;20037;-72
2024/02/16 01:00:06;;;;;;;5.00;2.22;;;5.90;64.20;;;;;;5071615;28;20039;-71
2024/02/16 01:02:33;;;;;;;5.28;2.78;;;5.90;63.90;;;;;;5053951;28;20123;-72
2024/02/16 01:05:01;;;;;;;14.93;3.40;;;5.90;64.10;;;;;;5072190;28;20134;-71
2024/02/16 01:07:28;;;;;;;4.38;3.10;;;5.80;63.90;;;;;;5072445;28;20036;-71
2024/02/16 01:09:56;;;;;;;3.15;2.00;;;5.80;63.60;;;;;;5071950;28;20087;-72
2024/02/16 01:12:22;;;;;;;4.25;1.95;;;5.80;63.80;;;;;;5071410;28;20523;-72
2024/02/16 01:14:48;;;;;;;4.20;1.83;;;5.80;63.10;;;;;;5071954;28;20032;-71
2024/02/16 01:17:14;;;;;;;3.33;2.08;;;5.80;63.50;;;;;;5070600;28;20059;-72
2024/02/16 01:19:40;;;;;;;3.67;2.28;;;5.80;63.40;;;;;;5071946;28;20547;-72
2024/02/16 01:22:06;;;;;;;6.47;2.72;;;5.80;63.30;;;;;;5071388;28;20052;-71
2024/02/16 01:24:32;;;;;;;10.10;3.55;;;5.70;63.50;;;;;;5053651;28;20041;-71
2024/02/16 01:26:59;;;;;;;3.00;1.85;;;5.70;63.50;;;;;;5071529;28;20051;-71
2024/02/16 01:29:25;;;;;;;;;;;5.70;63.70;;;;;;5070660;28;20037;-71
2024/02/16 01:31:51;;;;;;;5.60;2.22;;;5.70;63.60;;;;;;5069783;28;20399;-72
2024/02/16 01:34:17;;;;;;;2.20;0.95;;;5.60;64.30;;;;;;5071952;28;20036;-70
2024/02/16 01:36:43;;;;;;;2.50;1.45;;;5.60;63.50;;;;;;5070281;28;20025;-72
2024/02/16 01:39:09;;;;;;;2.85;1.50;;;5.50;63.70;;;;;;5070289;28;20059;-71
2024/02/16 01:41:39;;;;;;;2.05;1.67;;;5.50;64.10;;;;;;5071204;28;20043;-72
2024/02/16 01:44:05;;;;;;;2.30;1.33;;;5.50;63.90;;;;;;5070480;28;20079;-72
2024/02/16 01:46:34;;;;;;;4.72;2.08;;;5.40;63.60;;;;;;5053657;28;20067;-71
2024/02/16 01:49:00;;;;;;;3.45;1.52;;;5.40;64.10;;;;;;5071465;28;20039;-72
2024/02/16 01:51:27;;;;;;;1.23;0.82;;;5.40;64.10;;;;;;5070535;28;20439;-71
2024/02/16 01:53:55;;;;;;;2.58;1.60;;;5.40;64.10;;;;;;5069783;28;20052;-71
2024/02/16 01:56:21;;;;;;;2.63;1.48;;;5.40;64.10;;;;;;5069761;28;20028;-72
2024/02/16 01:58:48;;;;;;;;;;;5.40;64.30;;;;;;5053464;28;20056;-72
2024/02/16 02:01:14;;;;;;;1.75;1.00;;;5.30;64.20;;;;;;5069292;28;19916;-71
2024/02/16 02:03:40;;;;;;;4.35;2.70;;;5.40;64.20;;;;;;5070799;28;20060;-72
2024/02/16 02:06:06;;;;;;;5.72;3.20;;;5.30;64.20;;;;;;5069926;28;20047;-71
2024/02/16 02:08:32;;;;;;;3.58;2.25;;;5.30;64.30;;;;;;5070042;28;20086;-71
2024/02/16 02:10:58;;;;;;;2.60;1.27;;;5.30;64.40;;;;;;5070474;28;20028;-71
2024/02/16 02:13:24;;;;;;;3.08;1.52;;;5.30;64.40;;;;;;5069584;28;20045;-72
2024/02/16 02:15:50;;;;;;;4.43;1.70;;;5.30;64.30;;;;;;5071013;28;20044;-72
2024/02/16 02:18:16;;;;;;;2.30;1.00;;;5.30;65.30;;;;;;5070011;28;20045;-72
2024/02/16 02:20:42;;;;;;;4.05;1.30;;;5.20;64.20;;;;;;5070493;28;20036;-71
2024/02/16 02:23:08;;;;;;;2.97;1.92;;;5.20;64.40;;;;;;5071410;28;20036;-72
2024/02/16 02:25:34;;;;;;;3.33;2.13;;;5.20;64.30;;;;;;5071076;28;20033;-71
2024/02/16 02:28:02;;;;;;;2.65;1.60;;;5.10;64.50;;;;;;5071184;28;20040;-71
2024/02/16 02:30:29;;;;;;;2.95;1.85;;;5.10;64.40;;;;;;5069197;28;20036;-72
2024/02/16 02:32:55;;;;;;;;;;;5.10;65.10;;;;;;5070466;28;20098;-72
2024/02/16 02:35:21;;;;;;;1.85;1.17;;;5.00;64.40;;;;;;5052868;28;19912;-72
2024/02/16 02:37:48;;;;;;;2.55;1.90;;;5.00;64.40;;;;;;5069836;28;20482;-71
2024/02/16 02:40:14;;;;;;;;;;;5.00;64.30;;;;;;5069523;28;20120;-71
2024/02/16 02:42:40;;;;;;;8.85;2.80;;;5.00;64.40;;;;;;5069704;28;19970;-70
2024/02/16 02:45:07;;;;;;;2.33;1.23;;;5.00;64.10;;;;;;5069662;28;20033;-71
2024/02/16 02:47:33;;;;;;;3.97;2.08;;;4.90;64.00;;;;;;5070965;28;20389;-72
2024/02/16 02:49:59;;;;;;;2.88;1.77;;;4.90;64.10;;;;;;5070690;28;20401;-72
2024/02/16 02:52:25;;;;;;;2.33;1.20;;;4.90;64.30;;;;;;5070561;28;20583;-71
2024/02/16 02:54:51;;;;;;;1.65;1.02;;;4.90;64.80;;;;;;5069363;28;20032;-71
2024/02/16 02:57:17;;;;;;;3.80;2.30;;;4.90;64.80;;;;;;5069458;28;20086;-72
2024/02/16 02:59:45;;;;;;;1.52;0.77;;;4.90;64.70;;;;;;5069360;28;20033;-71
2024/02/16 03:02:11;;;;;;;1.55;1.02;;;4.90;64.70;;;;;;5068840;28;20114;-71
2024/02/16 03:04:37;;;;;;;2.28;1.90;;;4.90;64.80;;;;;;5070817;28;20076;-71
2024/02/16 03:07:03;;;;;;;2.38;1.40;;;4.80;64.90;;;;;;5070875;28;20476;-71
2024/02/16 03:09:29;;;;;;;3.78;2.03;;;4.80;66.00;;;;;;5073769;28;20570;-71
2024/02/16 03:11:55;;;;;;;5.10;2.47;;;4.80;64.90;;;;;;5073294;28;20056;-71
2024/02/16 03:14:21;;;;;;;3.42;2.13;;;4.80;64.90;;;;;;5074355;28;20477;-71
2024/02/16 03:16:48;;;;;;;3.10;2.03;;;4.70;65.00;;;;;;5072670;28;20040;-71
2024/02/16 03:19:14;;;;;;;2.67;1.75;;;4.70;64.90;;;;;;5072514;28;20040;-70
2024/02/16 03:21:40;;;;;;;;;;;4.70;64.90;;;;;;5072354;28;20102;-72
2024/02/16 03:24:06;;;;;;;0.98;0.80;;;4.80;64.90;;;;;;5072525;28;20003;-72
2024/02/16 03:26:32;;;;;;;4.32;2.42;;;4.70;64.90;;;;;;5072644;28;20025;-71
2024/02/16 03:28:58;;;;;;;6.30;3.45;;;4.70;64.80;;;;;;5073313;28;20051;-71
2024/02/16 03:31:25;;;;;;;3.33;1.65;;;4.70;65.00;;;;;;5072019;28;20043;-71
2024/02/16 03:33:51;;;;;;;;;;;4.70;65.00;;;;;;5073108;28;20056;-71
2024/02/16 03:36:18;;;;;;;5.50;2.38;;;4.70;64.90;;;;;;5072360;28;20015;-71
2024/02/16 03:38:46;;;;;;;3.53;2.63;;;4.60;65.10;;;;;;5071994;28;20024;-71
2024/02/16 03:41:31;;;;;;;5.80;2.03;;;4.60;65.40;;;;;;5072016;28;20041;-71
2024/02/16 03:43:58;;;;;;;2.42;1.35;;;4.60;65.80;;;;;;5073687;28;20043;-71
2024/02/16 03:46:24;;;;;;;3.08;1.45;;;4.60;65.90;;;;;;5072553;28;20477;-72
2024/02/16 03:48:50;;;;;;;2.92;1.58;;;4.60;66.00;;;;;;5073511;28;20043;-72
2024/02/16 03:51:16;;;;;;;2.97;1.77;;;4.60;66.10;;;;;;5071974;28;20045;-72
2024/02/16 03:53:44;;;;;;;15.27;3.80;;;4.60;66.20;;;;;;5072279;28;20036;-72
2024/02/16 03:56:12;;;;;;;5.85;2.55;;;4.60;66.20;;;;;;5073472;28;20040;-71
2024/02/16 03:58:38;;;;;;;6.43;1.65;;;4.60;66.00;;;;;;5073829;28;20037;-71
2024/02/16 04:01:07;;;;;;;;;;;4.50;66.30;;;;;;5071930;28;20041;-72
2024/02/16 04:03:33;;;;;;;2.03;1.25;;;4.60;66.00;;;;;;5073134;28;20026;-72
2024/02/16 04:05:59;;;;;;;2.38;1.10;;;4.50;66.30;;;;;;5072888;28;20033;-71
2024/02/16 04:08:25;;;;;;;5.57;1.27;;;4.50;66.20;;;;;;5073341;28;20178;-71
2024/02/16 04:10:51;;;;;;;2.75;1.20;;;4.50;66.30;;;;;;5070987;28;20041;-71
2024/02/16 04:13:17;;;;;;;1.65;0.90;;;4.50;66.30;;;;;;5073052;28;20090;-71
2024/02/16 04:15:43;;;;;;;1.70;0.93;;;4.40;65.90;;;;;;5071635;28;20535;-71
2024/02/16 04:18:09;;;;;;;2.15;1.13;;;4.40;65.60;;;;;;5072879;28;20046;-72
2024/02/16 04:20:37;;;;;;;3.38;1.15;;;4.40;65.50;;;;;;5070772;28;20105;-71
2024/02/16 04:23:04;;;;;;;2.17;1.27;;;4.40;65.40;;;;;;5071183;28;20028;-72
2024/02/16 04:25:30;;;;;;;0.90;0.40;;;4.30;65.50;;;;;;5071412;28;20359;-71
2024/02/16 04:27:56;;;;;;;2.05;1.15;;;4.30;65.40;;;;;;5072182;28;20047;-72
2024/02/16 04:30:22;;;;;;;4.22;1.60;;;4.20;65.20;;;;;;5072155;28;20024;-71
2024/02/16 04:32:48;;;;;;;1.48;0.82;;;4.10;65.40;;;;;;5072768;28;20569;-72
2024/02/16 04:35:15;;;;;;;1.63;0.95;;;4.10;65.50;;;;;;5072297;28;20033;-71
2024/02/16 04:37:41;;;;;;;1.90;1.45;;;4.10;65.50;;;;;;5071079;28;20072;-71
2024/02/16 04:40:08;;;;;;;3.03;1.65;;;4.10;65.60;;;;;;5070584;28;20043;-72
2024/02/16 04:42:34;;;;;;;1.85;0.85;;;4.00;65.10;;;;;;5071121;28;20497;-71
2024/02/16 04:45:01;;;;;;;2.45;1.27;;;4.00;66.00;;;;;;5054250;28;20127;-72
2024/02/16 04:47:27;;;;;;;2.58;1.27;;;4.00;65.90;;;;;;5072159;28;20047;-72
2024/02/16 04:49:53;;;;;;;2.45;1.15;;;4.00;65.80;;;;;;5070955;28;20028;-71
2024/02/16 04:52:19;;;;;;;1.60;1.15;;;3.90;65.90;;;;;;5070373;28;20040;-72
2024/02/16 04:54:45;;;;;;;1.00;0.60;;;3.90;65.70;;;;;;5070543;28;20120;-72
2024/02/16 04:57:11;;;;;;;1.73;1.00;;;3.70;65.30;;;;;;5072127;28;20032;-71
2024/02/16 04:59:37;;;;;;;1.70;0.95;;;3.60;65.40;;;;;;5071935;28;20060;-72
2024/02/16 05:02:03;;;;;;;2.25;1.25;;;3.50;65.80;;;;;;5071631;28;20033;-72
2024/02/16 05:04:30;;;;;;;2.15;1.08;;;3.50;65.90;;;;;;5070593;28;20041;-71
2024/02/16 05:06:57;;;;;;;2.25;1.52;;;3.50;65.80;;;;;;5071686;28;20082;-72
2024/02/16 05:09:26;;;;;;;4.03;2.15;;;3.50;65.50;;;;;;5070303;28;20028;-72
2024/02/16 05:11:52;;;;;;;2.95;1.73;;;3.40;64.90;;;;;;5071107;28;20408;-71
2024/02/16 05:14:18;;;;;;;2.67;1.90;;;3.40;65.50;;;;;;5070435;28;20066;-71
2024/02/16 05:16:45;;;;;;;4.80;1.80;;;3.40;65.70;;;;;;5070206;28;20041;-72
2024/02/16 05:19:11;;;;;;;5.50;3.45;;;3.40;66.00;;;;;;5071681;28;20234;-72
2024/02/16 05:21:37;;;;;;;5.10;2.72;;;3.30;66.10;;;;;;5070947;28;20041;-71
2024/02/16 05:24:03;;;;;;;6.93;2.80;;;3.40;65.90;;;;;;5070183;28;20028;-71
2024/02/16 05:26:29;;;;;;;5.53;3.17;;;3.30;65.70;;;;;;5070137;28;20033;-72
2024/02/16 05:28:55;;;;;;;8.13;3.10;;;3.30;66.10;;;;;;5069965;28;20021;-72
2024/02/16 05:31:21;;;;;;;3.45;2.38;;;3.30;66.10;;;;;;5070391;28;20039;-72
2024/02/16 05:33:49;;;;;;;3.72;2.05;;;3.30;65.90;;;;;;5071286;28;20130;-72
2024/02/16 05:36:36;;;;;;;2.35;1.52;;;3.30;66.10;;;;;;5070257;28;20046;-72
2024/02/16 05:39:19;;;;;;;3.17;1.77;;;3.30;66.10;;;;;;5071242;28;20029;-72
2024/02/16 05:41:46;;;;;;;7.35;3.50;;;3.20;66.00;;;;;;5069352;28;20520;-71
2024/02/16 05:44:13;;;;;;;2.03;1.58;;;3.20;66.00;;;;;;5069754;28;20020;-71
2024/02/16 05:46:39;;;;;;;1.05;0.68;;;3.20;65.40;;;;;;5069651;28;20039;-71
2024/02/16 05:49:05;;;;;;;4.43;1.98;;;3.20;66.10;;;;;;5069662;28;20024;-71
2024/02/16 05:54:34;;;;;;;3.50;1.73;;;3.10;66.40;;;;;;5070846;28;20051;-71
2024/02/16 05:57:00;;;;;;;4.88;2.33;;;3.10;66.60;;;;;;5073251;28;20103;-71
2024/02/16 05:59:26;;;;;;;1.95;1.38;;;3.10;66.50;;;;;;5089703;28;20036;-72
2024/02/16 06:01:53;;;;;;;5.82;2.50;;;3.10;66.40;;;;;;5090690;28;20054;-71
2024/02/16 06:04:19;;;;;;;1.08;0.68;;;3.10;66.60;;;;;;5073280;28;20052;-72
2024/02/16 06:06:45;;;;;;;0.88;0.60;;;3.00;66.40;;;;;;5089956;28;20051;-71
2024/02/16 06:09:11;;;;;;;;;;;3.00;66.20;;;;;;5091624;28;20039;-72
2024/02/16 06:11:39;;;;;;;1.23;0.77;;;2.90;66.10;;;;;;5089052;28;19920;-72
2024/02/16 06:14:05;;;;;;;0.95;0.55;;;2.90;65.50;;;;;;5064056;28;20043;-71
2024/02/16 06:16:31;;;;;;;2.05;1.30;;;2.90;66.20;;;;;;5071032;28;20421;-71
2024/02/16 06:18:57;;;;;;;;;;;2.90;66.10;;;;;;5070065;28;20420;-71
2024/02/16 06:21:23;;;;;;;1.10;0.90;;;2.80;66.10;;;;;;5068966;28;20019;-72
2024/02/16 06:23:49;;;;;;;2.17;1.10;;;2.80;66.30;;;;;;5070686;28;20509;-72
2024/02/16 06:26:15;;;;;;;2.90;1.65;;;2.80;66.40;;;;;;5070858;28;20037;-72
2024/02/16 06:28:41;;;;;;;11.85;2.58;;;2.90;65.90;;;;;;5070616;28;20086;-72
2024/02/16 06:31:07;;;;;;;1.40;0.98;;;2.90;66.40;;;;;;5061681;28;20403;-71
2024/02/16 06:33:33;;;;;;;4.03;1.45;;;2.90;65.90;;;;;;5091160;28;20066;-72
2024/02/16 06:35:59;;;;;;;2.65;1.80;;;3.00;66.60;;;;;;5091403;28;20040;-71
2024/02/16 06:38:25;;;;;;;3.20;1.83;;;3.10;66.50;;;;;;5089865;28;20036;-72
2024/02/16 06:40:51;;;;;;;2.95;2.00;;;3.10;66.40;;;;;;5090184;28;20043;-72
2024/02/16 06:43:17;;;;;;;5.47;3.13;;;3.10;66.60;;;;;;5091438;28;20068;-72
2024/02/16 06:45:43;;;;;;;3.55;1.42;;;3.20;66.60;;;;;;5093504;28;20032;-71
2024/02/16 06:48:09;;;;;;;3.10;2.00;;;3.20;66.60;;;;;;5085066;28;20037;-72
2024/02/16 06:50:35;;;;;;;3.20;1.92;;;3.20;66.50;;;;;;5081037;28;20369;-72
2024/02/16 06:53:01;;;;;;;2.78;1.45;;;3.30;66.70;;;;;;5094952;28;20089;-71
2024/02/16 06:55:27;;;;;;;3.55;2.28;;;3.30;66.50;;;;;;5076371;28;20032;-72
2024/02/16 06:57:53;;;;;;;2.70;1.42;;;3.40;66.60;;;;;;5094684;28;20028;-72
2024/02/16 07:00:19;;;;;;;3.42;1.48;;;3.50;66.50;;;;;;5092717;28;20492;-72
2024/02/16 07:02:46;;;;;;;5.82;2.55;;;3.50;66.60;;;;;;5094538;28;20500;-72
2024/02/16 07:05:13;;;;;;;7.32;4.22;;;3.50;66.40;;;;;;5103011;28;20476;-72
2024/02/16 07:07:39;;;;;;;15.05;4.97;;;3.60;66.80;;;;;;5094252;28;20040;-72
2024/02/16 07:10:06;;;;;;;10.18;4.88;;;3.60;66.70;;;;;;5092305;28;20051;-71
2024/02/16 07:12:33;;;;;;;14.68;5.50;;;3.70;66.80;;;;;;5092814;28;20059;-71
2024/02/16 07:14:59;;;;;;;9.88;4.32;;;3.70;67.10;;;;;;5094215;28;20111;-72
2024/02/16 07:17:25;;;;;;;9.13;4.40;;;3.80;67.60;;;;;;5093307;28;20404;-71
2024/02/16 07:19:51;;;;;;;9.77;6.35;;;3.80;67.70;;;;;;5092686;28;20024;-72
2024/02/16 07:22:17;;;;;;;13.60;7.18;;;3.80;67.50;;;;;;5081218;28;20071;-71
2024/02/16 07:24:43;;;;;;;8.32;5.75;;;3.90;67.50;;;;;;5087957;28;20036;-72
2024/02/16 07:27:10;;;;;;;6.32;4.78;;;4.00;67.30;;;;;;5094037;28;20101;-72
2024/02/16 07:29:38;;;;;;;6.63;3.60;;;4.00;67.10;;;;;;5092681;28;20032;-72
2024/02/16 07:32:05;;;;;;;10.18;6.28;;;4.10;67.20;;;;;;5093419;28;20055;-71
2024/02/16 07:34:31;;;;;;;;;;;4.10;68.10;;;;;;5093135;28;20107;-72
2024/02/16 07:36:57;;;;;;;2.95;1.92;;;4.20;68.00;;;;;;5093787;28;20046;-71
2024/02/16 07:39:24;;;;;;;4.15;2.70;;;4.20;68.80;;;;;;5082235;28;20552;-72
2024/02/16 07:41:51;;;;;;;3.45;2.08;;;4.30;68.60;;;;;;5080540;28;20051;-72
2024/02/16 07:44:17;;;;;;;2.80;1.42;;;4.40;69.00;;;;;;5092640;28;20056;-71
2024/02/16 07:46:45;;;;;;;5.28;2.45;;;4.40;69.80;;;;;;5093328;28;20063;-71
2024/02/16 07:49:11;;;;;;;4.13;2.65;;;4.50;69.90;;;;;;5092383;28;20038;-71
2024/02/16 07:51:38;;;;;;;3.83;2.22;;;4.60;69.60;;;;;;5091730;28;20044;-72
2024/02/16 07:54:05;;;;;;;4.85;2.22;;;4.60;70.30;;;;;;5074788;28;20040;-72
2024/02/16 07:56:31;;;;;;;10.70;3.92;;;4.70;70.10;;;;;;5093188;28;20058;-72
2024/02/16 07:58:57;;;;;;;2.05;1.30;;;4.80;70.80;;;;;;5093165;28;20335;-71
2024/02/16 08:01:23;;;;;;;3.90;2.40;;;4.80;70.40;;;;;;5091564;28;20036;-72
2024/02/16 08:03:50;;;;;;;8.35;2.75;;;5.00;70.20;;;;;;5091842;28;20094;-72
2024/02/16 08:06:20;;;;;;;4.03;2.08;;;5.00;69.90;;;;;;5093282;28;20028;-72
2024/02/16 08:08:47;;;;;;;4.15;1.98;;;5.10;70.50;;;;;;5091854;28;20097;-72
2024/02/16 08:11:13;;;;;;;2.55;1.65;;;5.20;69.90;;;;;;5091306;28;20105;-71
2024/02/16 08:13:39;;;;;;;4.25;2.15;;;5.40;69.80;;;;;;5090528;28;20069;-72
2024/02/16 08:16:06;;;;;;;5.95;1.90;;;5.50;69.20;;;;;;5091756;28;20028;-71
2024/02/16 08:18:34;;;;;;;4.43;2.05;;;5.70;68.20;;;;;;5091953;28;20489;-72
2024/02/16 08:21:00;;;;;;;6.20;3.72;;;5.80;68.50;;;;;;5092425;28;20074;-72
2024/02/16 08:23:26;;;;;;;;;;;6.00;68.50;;;;;;5090941;28;20036;-71
2024/02/16 08:25:52;;;;;;;5.20;2.45;;;6.10;69.10;;;;;;5092720;28;19918;-72
2024/02/16 08:28:18;;;;;;;8.40;3.53;;;6.40;68.30;;;;;;5091546;28;20157;-72
2024/02/16 08:30:45;;;;;;;5.20;2.33;;;6.60;68.40;;;;;;5075810;28;20208;-72
2024/02/16 08:35:57;;;;;;;1.52;1.25;;;7.00;67.00;;;;;;5082152;28;20050;-71
2024/02/16 08:38:23;;;;;;;5.38;2.40;;;7.60;66.60;;;;;;5072887;28;20045;-72
2024/02/16 08:40:51;;;;;;;3.95;1.42;;;9.10;63.00;;;;;;5077161;28;20161;-72
2024/02/16 08:43:18;;;;;;;3.50;2.47;;;10.60;58.90;;;;;;5091466;28;20511;-72
2024/02/16 08:45:43;;;;;;;3.17;2.28;;;12.10;56.10;;;;;;5092498;28;20036;-72
2024/02/16 08:48:09;;;;;;;3.47;2.05;;;13.20;53.60;;;;;;5092428;28;20047;-73
2024/02/16 08:50:35;;;;;;;1.40;0.90;;;14.40;50.80;;;;;;5091533;28;20054;-73
2024/02/16 08:53:01;;;;;;;2.42;1.63;;;15.30;49.00;;;;;;5070785;28;20035;-72
2024/02/16 08:55:27;;;;;;;1.55;0.85;;;16.10;44.00;;;;;;5070434;28;20029;-72
2024/02/16 08:57:54;;;;;;;2.58;2.17;;;16.90;43.50;;;;;;5070756;28;20064;-72
2024/02/16 09:00:20;;;;;;;3.50;2.15;;;17.70;39.70;;;;;;5070240;28;20539;-72
2024/02/16 09:02:46;;;;;;;;;;;18.30;38.90;;;;;;5072379;28;20036;-73
2024/02/16 09:05:12;;;;;;;8.52;2.15;;;18.70;37.90;;;;;;5069695;28;19914;-72
2024/02/16 09:07:38;;;;;;;3.17;2.17;;;19.50;35.40;;;;;;5070677;28;20032;-72
2024/02/16 09:10:07;;;;;;;3.22;2.08;;;19.60;35.50;;;;;;5069705;28;20041;-72
2024/02/16 09:12:33;;;;;;;5.80;4.03;;;20.10;34.60;;;;;;5074722;28;20539;-72
2024/02/16 09:14:59;;;;;;;1.63;0.93;;;20.30;34.30;;;;;;5073477;28;20028;-72
2024/02/16 09:17:26;;;;;;;2.30;1.15;;;20.30;33.00;;;;;;5091717;28;20036;-72
2024/02/16 09:19:52;;;;;;;1.45;1.05;;;20.40;32.90;;;;;;5090542;28;20110;-73
2024/02/16 09:22:18;;;;;;;2.58;1.38;;;20.80;32.20;;;;;;5071783;28;20044;-72
2024/02/16 09:24:46;;;;;;;2.80;2.28;;;21.10;30.20;;;;;;5070331;28;20082;-72
2024/02/16 09:27:13;;;;;;;2.83;1.73;;;21.30;30.00;;;;;;5071558;28;20063;-72
2024/02/16 09:29:39;;;;;;;;;;;22.10;29.00;;;;;;5074812;28;20043;-72
2024/02/16 09:32:06;;;;;;;2.45;1.85;;;22.60;28.60;;;;;;5089787;28;19924;-72
2024/02/16 09:34:32;;;;;;;3.20;1.98;;;22.50;27.80;;;;;;5090299;28;20047;-72
2024/02/16 09:36:58;;;;;;;;;;;21.80;28.50;;;;;;5092100;28;20041;-72
2024/02/16 09:39:24;;;;;;;6.32;1.73;;;21.70;29.40;;;;;;5071067;28;20345;-72
2024/02/16 09:41:54;;;;;;;1.95;1.48;;;21.50;29.50;;;;;;5070664;28;20314;-72
2024/02/16 09:44:22;;;;;;;2.42;1.70;;;20.70;29.00;;;;;;5070140;28;20078;-72
2024/02/16 09:46:48;;;;;;;1.45;1.27;;;20.00;30.60;;;;;;5069841;28;20036;-72
2024/02/16 09:49:14;;;;;;;2.40;1.52;;;20.30;30.00;;;;;;5086349;28;20051;-72
2024/02/16 09:51:40;;;;;;;;;;;20.20;30.40;;;;;;5090216;28;20051;-72
2024/02/16 09:54:07;;;;;;;1.77;1.15;;;20.50;30.10;;;;;;5090971;28;20003;-72
2024/02/16 09:56:33;;;;;;;2.28;1.58;;;21.00;29.20;;;;;;5091444;28;20174;-73
2024/02/16 09:59:00;;;;;;;2.78;1.92;;;20.70;29.20;;;;;;5091143;28;20024;-72
2024/02/16 10:01:26;;;;;;;1.38;0.80;;;20.60;29.40;;;;;;5089390;28;20065;-73
2024/02/16 10:03:52;;;;;;;;;;;20.60;29.40;;;;;;5090507;28;20119;-72
2024/02/16 10:06:20;;;;;;;1.75;1.02;;;21.00;28.50;;;;;;5106629;28;19916;-73
2024/02/16 10:09:06;;;;;;;1.55;0.82;;;21.20;28.60;;;;;;5089999;28;20039;-72
2024/02/16 10:11:33;;;;;;;3.17;1.55;;;21.80;28.00;;;;;;5083096;28;20115;-72
2024/02/16 10:14:19;;;;;;;5.68;2.90;;;21.20;27.60;;;;;;5070909;28;20086;-72
2024/02/16 10:16:47;;;;;;;8.85;2.47;;;20.70;29.50;;;;;;5070549;28;20477;-72
2024/02/16 10:19:14;;;;;;;4.72;3.00;;;20.40;30.00;;;;;;5073747;28;20533;-72
2024/02/16 10:21:40;;;;;;;2.25;1.52;;;20.60;29.60;;;;;;5073107;28;20048;-72
2024/02/16 10:24:09;;;;;;;2.88;1.40;;;20.80;29.10;;;;;;5056896;28;20032;-72
2024/02/16 10:26:39;;;;;;;2.25;1.50;;;20.20;29.50;;;;;;5073591;28;20041;-72
2024/02/16 10:29:09;;;;;;;1.30;1.17;;;19.80;30.60;;;;;;5082698;28;20028;-72
2024/02/16 10:31:35;;;;;;;4.50;2.72;;;19.50;31.20;;;;;;5093482;28;20040;-71
2024/02/16 10:34:05;;;;;;;;;;;19.40;30.80;;;;;;5077158;28;20503;-72
2024/02/16 10:36:51;;;;;;;2.55;2.08;;;19.50;30.00;;;;;;5082778;28;19916;-72
2024/02/16 10:39:18;;;;;;;3.33;2.08;;;19.60;30.70;;;;;;5091535;28;20446;-72
2024/02/16 10:41:45;;;;;;;1.27;0.90;;;20.40;29.50;;;;;;5056127;28;20109;-72
2024/02/16 10:44:12;;;;;;;3.72;1.88;;;20.50;29.00;;;;;;5073278;28;20040;-73
2024/02/16 10:46:38;;;;;;;3.42;2.28;;;20.60;29.70;;;;;;5086950;28;20051;-72
2024/02/16 10:52:12;;;;;;;2.05;1.30;;;21.40;28.10;;;;;;5078818;28;20047;-72
2024/02/16 10:54:40;;;;;;;3.10;1.45;;;22.50;27.60;;;;;;5073165;28;20032;-72
2024/02/16 10:57:09;;;;;;;1.15;0.98;;;22.40;27.10;;;;;;5074337;28;20376;-72
2024/02/16 10:59:43;;;;;;;3.38;1.48;;;22.30;27.50;;;;;;5056230;28;20500;-72
2024/02/16 11:02:10;;;;;;;3.92;0.70;;;21.80;28.00;;;;;;5057230;28;20520;-73
2024/02/16 11:04:40;;;;;;;1.83;1.35;;;21.70;28.60;;;;;;5093605;28;20412;-73
2024/02/16 11:07:16;;;;;;;2.13;1.52;;;21.70;28.90;;;;;;5094307;28;20043;-72
2024/02/16 11:09:45;;;;;;;2.07;1.57;;;21.20;29.10;;;;;;5093218;28;20489;-72
2024/02/16 11:12:15;;;;;;;2.10;1.10;;;21.60;28.30;;;;;;5092627;28;20425;-72
2024/02/16 11:14:43;;;;;;;1.40;0.82;;;22.00;27.10;;;;;;5073978;28;20047;-73
2024/02/16 11:17:29;;;;;;;5.05;0.98;;;21.60;28.10;;;;;;5056028;28;20064;-73
2024/02/16 11:19:55;;;;;;;2.00;0.95;;;22.00;27.80;;;;;;5072519;28;20025;-72
2024/02/16 11:22:22;;;;;;;1.35;0.80;;;21.90;27.80;;;;;;5071938;28;20452;-72
2024/02/16 11:24:50;;;;;;;2.65;1.63;;;22.20;27.80;;;;;;5082515;28;20032;-72
2024/02/16 11:27:21;;;;;;;0.85;0.43;;;23.40;26.60;;;;;;5072623;28;20046;-72
2024/02/16 11:29:48;;;;;;;2.63;1.45;;;24.30;25.70;;;;;;5071579;28;20028;-72
2024/02/16 11:32:14;;;;;;;0.47;0.38;;;25.20;23.90;;;;;;5073455;28;20033;-72
2024/02/16 11:34:40;;;;;;;;;;;25.30;23.20;;;;;;5074197;28;20060;-72
2024/02/16 11:37:07;;;;;;;0.70;0.50;;;24.90;22.90;;;;;;5073650;28;20379;-72
2024/02/16 11:39:37;;;;;;;2.53;1.15;;;24.70;23.60;;;;;;5072417;28;20024;-72
2024/02/16 11:42:21;;;;;;;2.38;1.60;;;24.50;24.60;;;;;;5073001;28;20509;-72
2024/02/16 11:45:06;;;;;;;0.90;0.73;;;24.20;24.80;;;;;;5073473;28;20040;-72
2024/02/16 11:47:32;;;;;;;2.20;1.55;;;24.00;24.20;;;;;;5072435;28;20473;-72
2024/02/16 11:50:18;;;;;;;;;;;24.50;24.90;;;;;;5094022;28;20043;-73
2024/02/16 11:52:44;;;;;;;1.27;0.75;;;25.20;23.50;;;;;;5084707;28;19931;-72
2024/02/16 11:55:28;;;;;;;;;;;25.80;22.40;;;;;;5072094;28;20036;-72
2024/02/16 11:57:56;;;;;;;3.78;1.75;;;25.80;22.80;;;;;;5088552;28;19920;-73
2024/02/16 12:00:22;;;;;;;1.50;1.02;;;26.10;21.60;;;;;;5071472;28;20493;-72
2024/02/16 12:03:00;;;;;;;4.85;1.08;;;26.60;20.70;;;;;;5071793;28;20051;-72
2024/02/16 12:05:26;;;;;;;2.50;1.80;;;26.70;21.30;;;;;;5071907;28;20047;-72
2024/02/16 12:07:52;;;;;;;2.88;1.20;;;26.60;21.30;;;;;;5091898;28;20040;-72
2024/02/16 12:10:18;;;;;;;;;;;25.80;21.70;;;;;;5089499;28;20039;-72
2024/02/16 12:12:44;;;;;;;2.75;2.25;;;26.00;22.30;;;;;;5093349;28;19926;-72
2024/02/16 12:15:11;;;;;;;;;;;26.20;21.80;;;;;;5092117;28;20032;-72
2024/02/16 12:17:37;;;;;;;1.73;1.20;;;26.90;20.70;;;;;;5055115;28;19920;-72
2024/02/16 12:20:12;;;;;;;1.90;1.08;;;27.00;20.80;;;;;;5072402;28;20090;-72
2024/02/16 12:22:38;;;;;;;2.15;1.75;;;25.80;21.80;;;;;;5071503;28;20037;-73
2024/02/16 12:25:04;;;;;;;2.35;0.90;;;26.20;21.90;;;;;;5071481;28;20507;-72
2024/02/16 12:27:31;;;;;;;1.15;0.47;;;26.80;20.90;;;;;;5077229;28;20127;-72
2024/02/16 12:29:57;;;;;;;1.75;1.15;;;28.00;19.80;;;;;;5091618;28;20032;-73
2024/02/16 12:32:23;;;;;;;3.50;0.82;;;29.10;18.90;;;;;;5074084;28;20069;-72
2024/02/16 12:34:49;;;;;;;1.30;0.85;;;29.30;17.80;;;;;;5092754;28;20422;-72
2024/02/16 12:37:15;;;;;;;1.48;0.60;;;28.20;18.60;;;;;;5092946;28;20059;-73
2024/02/16 12:39:41;;;;;;;1.02;0.90;;;28.10;19.50;;;;;;5092152;28;20058;-72
2024/02/16 12:42:08;;;;;;;2.17;1.17;;;29.20;17.90;;;;;;5090625;28;20438;-73
2024/02/16 12:44:34;;;;;;;1.05;0.77;;;29.90;17.60;;;;;;5091180;28;20085;-72
2024/02/16 12:47:00;;;;;;;0.77;0.73;;;30.80;17.10;;;;;;5091074;28;20032;-72
2024/02/16 12:49:26;;;;;;;2.45;1.02;;;31.00;16.90;;;;;;5091164;28;20475;-72
2024/02/16 12:51:52;;;;;;;9.43;1.52;;;30.90;15.80;;;;;;5090653;28;20040;-72
2024/02/16 12:54:22;;;;;;;0.30;0.30;;;32.40;15.00;;;;;;5091137;28;20036;-72
2024/02/16 12:56:49;;;;;;;0.20;0.20;;;33.30;14.10;;;;;;5090584;28;20028;-72
2024/02/16 12:59:16;;;;;;;12.48;0.93;;;34.40;13.40;;;;;;5090073;28;20040;-72
2024/02/16 13:01:42;;;;;;;2.53;0.90;;;35.80;12.40;;;;;;5091669;28;20040;-72
2024/02/16 13:04:09;;;;;;;1.88;1.00;;;36.40;12.20;;;;;;5091917;28;20048;-72
2024/02/16 13:06:35;;;;;;;2.05;1.33;;;36.70;11.50;;;;;;5090723;28;20047;-72
2024/02/16 13:09:02;;;;;;;1.40;0.93;;;37.70;11.70;;;;;;5091941;28;20126;-72
2024/02/16 13:11:29;;;;;;;0.82;0.77;;;38.10;11.50;;;;;;5107160;28;20036;-72
2024/02/16 13:13:55;;;;;;;0.98;0.63;;;38.30;11.20;;;;;;5090601;28;20036;-72